Time;durP1;ratioP1;P1;durP2;ratioP2;P2;SDS_P1;SDS_P2;PMS_P1;PMS_P2;Temp;Humidity;BMP_temperature;BMP_pressure;BME280_temperature;BME280_humidity;BME280_pressure;Samples;Min_cycle;Max_cycle;Signal;HPM_P1;HPM_P2
2022/05/08 00:00:53;;;;;;;25.77;6.07;;;;;;;;;;5065693;28;20234;-67
2022/05/08 00:03:18;;;;;;;22.50;5.88;;;;;;;;;;5061986;28;20188;-68
2022/05/08 00:05:44;;;;;;;18.60;5.15;;;;;;;;;;5068210;28;20644;-67
2022/05/08 00:08:09;;;;;;;22.92;6.00;;;;;;;;;;5065595;28;20216;-66
2022/05/08 00:10:34;;;;;;;22.73;6.13;;;;;;;;;;5068252;28;20684;-66
2022/05/08 00:13:00;;;;;;;20.20;6.78;;;;;;;;;;5063873;28;20282;-68
2022/05/08 00:15:26;;;;;;;23.90;5.57;;;;;;;;;;5061722;28;20181;-66
2022/05/08 00:17:51;;;;;;;22.35;5.90;;;;;;;;;;5080005;28;20221;-66
2022/05/08 00:20:17;;;;;;;21.50;5.97;;;;;;;;;;5061660;28;20398;-66
2022/05/08 00:22:43;;;;;;;20.50;5.68;;;;;;;;;;5059491;28;20180;-66
2022/05/08 00:25:09;;;;;;;22.95;5.25;;;;;;;;;;5066478;28;20196;-66
2022/05/08 00:27:34;;;;;;;25.55;5.75;;;;;;;;;;5062961;28;20193;-65
2022/05/08 00:30:01;;;;;;;28.08;6.28;;;;;;;;;;5062643;28;20208;-66
2022/05/08 00:32:26;;;;;;;23.83;5.68;;;;;;;;;;5067667;28;20200;-66
2022/05/08 00:34:51;;;;;;;32.10;5.88;;;;;;;;;;5063016;28;20195;-65
2022/05/08 00:37:17;;;;;;;29.58;5.68;;;;;;;;;;5067423;28;20176;-66
2022/05/08 00:39:43;;;;;;;23.80;4.93;;;;;;;;;;5067094;28;20177;-66
2022/05/08 00:42:09;;;;;;;23.67;5.78;;;;;;;;;;5063674;28;20181;-65
2022/05/08 00:44:34;;;;;;;25.10;5.68;;;;;;;;;;5066989;28;20235;-65
2022/05/08 00:46:59;;;;;;;20.98;5.25;;;;;;;;;;5066840;28;20228;-65
2022/05/08 00:49:25;;;;;;;25.73;5.53;;;;;;;;;;5067197;28;20298;-65
2022/05/08 00:51:50;;;;;;;26.20;5.55;;;;;;;;;;5066866;28;20187;-65
2022/05/08 00:54:16;;;;;;;15.93;4.85;;;;;;;;;;5055936;28;20177;-65
2022/05/08 00:56:42;;;;;;;20.85;5.30;;;;;;;;;;5064788;28;20187;-65
2022/05/08 00:59:08;;;;;;;23.90;5.53;;;;;;;;;;5066701;28;20192;-66
2022/05/08 01:01:33;;;;;;;19.70;4.50;;;;;;;;;;5067205;28;20260;-65
2022/05/08 01:03:58;;;;;;;23.58;5.30;;;;;;;;;;5057923;28;20177;-65
2022/05/08 01:06:24;;;;;;;17.80;5.22;;;;;;;;;;5063326;28;20337;-65
2022/05/08 01:08:51;;;;;;;25.60;5.65;;;;;;;;;;5081223;28;20240;-65
2022/05/08 01:11:17;;;;;;;27.13;5.53;;;;;;;;;;5062089;28;20185;-66
2022/05/08 01:13:44;;;;;;;23.92;5.80;;;;;;;;;;5063186;28;20185;-66
2022/05/08 01:16:11;;;;;;;15.77;4.70;;;;;;;;;;5066749;28;20679;-66
2022/05/08 01:18:38;;;;;;;30.08;5.35;;;;;;;;;;5064397;28;20188;-65
2022/05/08 01:21:04;;;;;;;23.77;4.88;;;;;;;;;;5055201;28;20181;-65
2022/05/08 01:23:30;;;;;;;26.15;5.43;;;;;;;;;;5066820;28;20276;-66
2022/05/08 01:25:57;;;;;;;21.58;4.97;;;;;;;;;;5063217;28;20703;-67
2022/05/08 01:28:24;;;;;;;24.58;4.75;;;;;;;;;;5060337;28;20552;-65
2022/05/08 01:30:52;;;;;;;23.33;4.50;;;;;;;;;;5064749;28;20712;-65
2022/05/08 01:33:18;;;;;;;29.50;4.50;;;;;;;;;;5057847;28;20279;-65
2022/05/08 01:35:44;;;;;;;23.33;5.05;;;;;;;;;;5057747;28;20311;-65
2022/05/08 01:38:13;;;;;;;24.55;5.97;;;;;;;;;;5066179;28;20181;-66
2022/05/08 01:40:39;;;;;;;21.25;4.25;;;;;;;;;;5063944;28;20185;-66
2022/05/08 01:43:05;;;;;;;27.65;5.22;;;;;;;;;;5062104;28;20208;-66
2022/05/08 01:45:31;;;;;;;25.08;4.57;;;;;;;;;;5069827;28;20189;-66
2022/05/08 01:50:41;;;;;;;20.77;4.70;;;;;;;;;;5065384;28;20200;-66
2022/05/08 01:53:06;;;;;;;14.93;4.07;;;;;;;;;;5063179;28;20648;-66
2022/05/08 01:55:32;;;;;;;19.73;4.32;;;;;;;;;;5068343;28;20185;-66
2022/05/08 01:57:58;;;;;;;22.77;5.18;;;;;;;;;;5066773;28;20185;-66
2022/05/08 02:00:25;;;;;;;20.92;4.53;;;;;;;;;;5066290;28;20355;-66
2022/05/08 02:02:52;;;;;;;31.80;4.80;;;;;;;;;;5066793;28;20188;-66
2022/05/08 02:05:21;;;;;;;25.60;4.85;;;;;;;;;;5068138;28;20188;-67
2022/05/08 02:07:47;;;;;;;23.00;4.38;;;;;;;;;;5067467;28;20187;-66
2022/05/08 02:10:15;;;;;;;30.63;5.35;;;;;;;;;;5066938;28;20304;-66
2022/05/08 02:12:41;;;;;;;20.58;4.57;;;;;;;;;;5060022;28;20709;-66
2022/05/08 02:15:08;;;;;;;20.80;4.70;;;;;;;;;;5064249;28;20200;-66
2022/05/08 02:17:34;;;;;;;26.23;3.85;;;;;;;;;;5069131;28;20192;-66
2022/05/08 02:20:00;;;;;;;27.67;5.35;;;;;;;;;;5066279;28;20205;-66
2022/05/08 02:22:26;;;;;;;20.58;4.72;;;;;;;;;;5065506;28;20217;-66
2022/05/08 02:24:52;;;;;;;16.77;4.38;;;;;;;;;;5055173;28;20181;-66
2022/05/08 02:27:17;;;;;;;22.73;5.10;;;;;;;;;;5063408;28;20253;-66
2022/05/08 02:29:46;;;;;;;21.45;4.60;;;;;;;;;;5068117;28;20210;-66
2022/05/08 02:32:12;;;;;;;18.50;4.50;;;;;;;;;;5062062;28;20272;-66
2022/05/08 02:34:38;;;;;;;23.13;4.05;;;;;;;;;;5058732;28;20225;-66
2022/05/08 02:37:03;;;;;;;20.33;4.75;;;;;;;;;;5059705;28;20209;-66
2022/05/08 02:39:29;;;;;;;18.27;3.97;;;;;;;;;;5066021;28;20211;-66
2022/05/08 02:41:54;;;;;;;21.80;4.35;;;;;;;;;;5058559;28;20272;-66
2022/05/08 02:44:19;;;;;;;21.63;4.97;;;;;;;;;;5068288;28;20649;-66
2022/05/08 02:46:45;;;;;;;17.50;3.92;;;;;;;;;;5068411;28;20177;-66
2022/05/08 02:49:10;;;;;;;22.58;4.38;;;;;;;;;;5066545;28;20570;-66
2022/05/08 02:51:36;;;;;;;18.38;4.10;;;;;;;;;;5059762;28;20662;-66
2022/05/08 02:54:01;;;;;;;15.23;4.07;;;;;;;;;;5069017;28;20625;-66
2022/05/08 02:59:10;;;;;;;29.63;5.00;;;;;;;;;;5067146;28;20336;-66
2022/05/08 03:01:36;;;;;;;23.57;4.40;;;;;;;;;;5067892;28;20661;-66
2022/05/08 03:04:02;;;;;;;21.40;4.17;;;;;;;;;;5069039;28;20264;-66
2022/05/08 03:06:27;;;;;;;23.60;4.78;;;;;;;;;;5083303;28;20781;-66
2022/05/08 03:08:53;;;;;;;25.67;4.75;;;;;;;;;;5066052;28;20304;-66
2022/05/08 03:11:28;;;;;;;22.23;4.32;;;;;;;;;;5058624;28;20556;-66
2022/05/08 03:13:55;;;;;;;20.33;4.45;;;;;;;;;;5063744;28;20621;-66
2022/05/08 03:16:22;;;;;;;17.83;3.88;;;;;;;;;;5062249;28;20670;-65
2022/05/08 03:18:48;;;;;;;21.43;4.10;;;;;;;;;;5055002;28;20318;-65
2022/05/08 03:21:14;;;;;;;21.98;4.38;;;;;;;;;;5054886;28;20551;-66
2022/05/08 03:23:41;;;;;;;20.47;4.37;;;;;;;;;;5067947;28;20219;-66
2022/05/08 03:26:08;;;;;;;22.83;4.07;;;;;;;;;;5067866;28;20191;-66
2022/05/08 03:28:34;;;;;;;21.27;4.80;;;;;;;;;;5066096;28;20180;-65
2022/05/08 03:31:00;;;;;;;21.02;4.65;;;;;;;;;;5058400;28;20274;-65
2022/05/08 03:33:27;;;;;;;20.07;4.47;;;;;;;;;;5063452;28;20181;-65
2022/05/08 03:35:52;;;;;;;18.63;4.77;;;;;;;;;;5057432;28;20542;-65
2022/05/08 03:38:21;;;;;;;26.90;4.97;;;;;;;;;;5067356;28;20240;-65
2022/05/08 03:40:46;;;;;;;23.80;5.30;;;;;;;;;;5060313;28;20197;-66
2022/05/08 03:43:12;;;;;;;23.40;4.23;;;;;;;;;;5066606;28;20238;-66
2022/05/08 03:45:37;;;;;;;17.40;4.27;;;;;;;;;;5058176;28;20657;-67
2022/05/08 03:48:03;;;;;;;26.10;4.27;;;;;;;;;;5060189;28;20184;-67
2022/05/08 03:50:29;;;;;;;14.60;4.43;;;;;;;;;;5054571;28;20212;-66
2022/05/08 03:52:59;;;;;;;24.63;5.07;;;;;;;;;;5066270;28;20271;-66
2022/05/08 03:55:25;;;;;;;24.80;4.53;;;;;;;;;;5068129;28;20180;-67
2022/05/08 03:57:50;;;;;;;30.03;5.30;;;;;;;;;;5065517;28;20233;-66
2022/05/08 04:00:16;;;;;;;23.33;5.30;;;;;;;;;;5064985;28;20189;-67
2022/05/08 04:02:42;;;;;;;27.23;5.33;;;;;;;;;;5065576;28;20208;-67
2022/05/08 04:05:08;;;;;;;22.37;5.37;;;;;;;;;;5065806;28;20199;-66
2022/05/08 04:07:34;;;;;;;26.00;4.77;;;;;;;;;;5060403;28;20534;-66
2022/05/08 04:10:00;;;;;;;21.50;5.20;;;;;;;;;;5055837;28;21083;-66
2022/05/08 04:12:26;;;;;;;22.77;4.90;;;;;;;;;;5062069;28;20267;-66
2022/05/08 04:14:51;;;;;;;23.40;5.17;;;;;;;;;;5065896;28;20189;-66
2022/05/08 04:17:17;;;;;;;20.57;4.70;;;;;;;;;;5062246;28;20181;-66
2022/05/08 04:19:42;;;;;;;24.63;4.63;;;;;;;;;;5065682;28;20216;-67
2022/05/08 04:24:52;;;;;;;20.53;5.23;;;;;;;;;;5065492;28;20711;-67
2022/05/08 04:27:18;;;;;;;23.93;4.77;;;;;;;;;;5055008;28;20177;-66
2022/05/08 04:29:44;;;;;;;18.03;4.90;;;;;;;;;;5064050;28;20197;-65
2022/05/08 04:32:09;;;;;;;23.70;4.93;;;;;;;;;;5067589;28;20201;-67
2022/05/08 04:34:34;;;;;;;25.20;5.30;;;;;;;;;;5066105;28;20184;-66
2022/05/08 04:36:59;;;;;;;21.20;4.90;;;;;;;;;;5061784;28;20220;-64
2022/05/08 04:39:25;;;;;;;23.93;5.10;;;;;;;;;;5063443;28;20263;-65
2022/05/08 04:41:50;;;;;;;29.73;5.27;;;;;;;;;;5064409;28;20242;-65
2022/05/08 04:44:16;;;;;;;16.70;4.97;;;;;;;;;;5066385;28;20639;-66
2022/05/08 04:46:41;;;;;;;27.00;5.43;;;;;;;;;;5062448;28;20687;-66
2022/05/08 04:49:06;;;;;;;22.25;4.95;;;;;;;;;;5062993;28;20196;-66
2022/05/08 04:51:32;;;;;;;26.97;6.10;;;;;;;;;;5066023;28;20181;-66
2022/05/08 04:53:57;;;;;;;20.67;5.05;;;;;;;;;;5065591;28;20191;-65
2022/05/08 04:56:22;;;;;;;28.42;6.55;;;;;;;;;;5077675;28;20195;-65
2022/05/08 04:58:48;;;;;;;26.10;5.78;;;;;;;;;;5064750;28;20181;-65
2022/05/08 05:01:13;;;;;;;16.30;4.80;;;;;;;;;;5069775;28;20185;-65
2022/05/08 05:03:39;;;;;;;25.33;5.65;;;;;;;;;;5064867;28;20189;-65
2022/05/08 05:06:05;;;;;;;22.47;5.57;;;;;;;;;;5065894;28;20780;-66
2022/05/08 05:08:30;;;;;;;26.53;5.37;;;;;;;;;;5068764;28;20273;-66
2022/05/08 05:10:55;;;;;;;19.43;4.90;;;;;;;;;;5068000;28;20184;-65
2022/05/08 05:13:21;;;;;;;24.95;5.93;;;;;;;;;;5070174;28;20180;-65
2022/05/08 05:15:46;;;;;;;26.42;5.78;;;;;;;;;;5068375;28;20287;-65
2022/05/08 05:18:11;;;;;;;29.73;6.43;;;;;;;;;;5068603;28;20208;-65
2022/05/08 05:20:37;;;;;;;26.20;5.80;;;;;;;;;;5069851;28;20497;-66
2022/05/08 05:23:03;;;;;;;26.15;5.50;;;;;;;;;;5058310;28;20197;-65
2022/05/08 05:25:29;;;;;;;20.75;5.40;;;;;;;;;;5069697;28;20315;-65
2022/05/08 05:27:55;;;;;;;22.95;5.65;;;;;;;;;;5065551;28;20223;-65
2022/05/08 05:30:20;;;;;;;33.83;5.78;;;;;;;;;;5064892;28;20575;-66
2022/05/08 05:32:46;;;;;;;21.52;5.32;;;;;;;;;;5066095;28;20648;-66
2022/05/08 05:35:12;;;;;;;23.53;5.67;;;;;;;;;;5069365;28;20557;-65
2022/05/08 05:37:38;;;;;;;23.00;5.00;;;;;;;;;;5065481;28;20275;-65
2022/05/08 05:40:04;;;;;;;21.43;5.20;;;;;;;;;;5069577;28;20173;-66
2022/05/08 05:42:31;;;;;;;23.50;4.73;;;;;;;;;;5069726;28;20288;-66
2022/05/08 05:44:56;;;;;;;25.83;5.17;;;;;;;;;;5067181;28;20251;-66
2022/05/08 05:50:06;;;;;;;26.20;5.68;;;;;;;;;;5069522;28;20228;-65
2022/05/08 05:52:34;;;;;;;23.00;4.93;;;;;;;;;;5066966;28;20659;-66
2022/05/08 05:54:59;;;;;;;17.10;4.55;;;;;;;;;;5071685;28;20189;-66
2022/05/08 05:57:25;;;;;;;14.90;4.35;;;;;;;;;;5065656;28;20547;-66
2022/05/08 05:59:50;;;;;;;24.20;5.65;;;;;;;;;;5068767;28;20659;-66
2022/05/08 06:02:15;;;;;;;19.27;5.30;;;;;;;;;;5066465;28;20193;-65
2022/05/08 06:04:41;;;;;;;19.13;4.20;;;;;;;;;;5069479;28;20207;-66
2022/05/08 06:07:06;;;;;;;22.38;4.50;;;;;;;;;;5059291;28;20193;-65
2022/05/08 06:09:32;;;;;;;24.48;4.90;;;;;;;;;;5070192;28;20224;-65
2022/05/08 06:11:58;;;;;;;13.00;3.95;;;;;;;;;;5077558;28;20209;-67
2022/05/08 06:14:23;;;;;;;19.05;4.30;;;;;;;;;;5069223;28;20204;-66
2022/05/08 06:16:49;;;;;;;18.50;4.55;;;;;;;;;;5069111;28;20230;-65
2022/05/08 06:19:14;;;;;;;20.67;4.22;;;;;;;;;;5069535;28;20191;-65
2022/05/08 06:21:39;;;;;;;21.90;4.22;;;;;;;;;;5069291;28;20560;-65
2022/05/08 06:24:05;;;;;;;14.45;3.63;;;;;;;;;;5069369;28;20177;-67
2022/05/08 06:26:30;;;;;;;16.58;3.58;;;;;;;;;;5066991;28;20199;-67
2022/05/08 06:28:57;;;;;;;15.75;3.10;;;;;;;;;;5067187;28;20208;-66
2022/05/08 06:31:22;;;;;;;11.95;2.58;;;;;;;;;;5067623;28;20201;-70
2022/05/08 06:33:49;;;;;;;13.32;3.13;;;;;;;;;;5068750;28;20180;-69
2022/05/08 06:36:14;;;;;;;13.93;2.85;;;;;;;;;;5082514;28;20208;-68
2022/05/08 06:38:40;;;;;;;17.67;3.30;;;;;;;;;;5068674;28;20231;-67
2022/05/08 06:41:05;;;;;;;16.50;3.20;;;;;;;;;;5066208;28;20777;-67
2022/05/08 06:43:30;;;;;;;13.00;2.90;;;;;;;;;;5068091;28;20271;-67
2022/05/08 06:45:56;;;;;;;15.98;3.05;;;;;;;;;;5067716;28;20786;-67
2022/05/08 06:48:21;;;;;;;13.02;4.22;;;;;;;;;;5065992;28;20308;-69
2022/05/08 06:50:47;;;;;;;20.38;4.30;;;;;;;;;;5068202;28;20284;-67
2022/05/08 06:53:12;;;;;;;17.25;3.20;;;;;;;;;;5066527;28;20184;-67
2022/05/08 06:55:38;;;;;;;14.30;3.20;;;;;;;;;;5066702;28;20200;-68
2022/05/08 06:58:03;;;;;;;15.82;3.30;;;;;;;;;;5066435;28;20200;-67
2022/05/08 07:03:13;;;;;;;10.57;2.60;;;;;;;;;;5064743;28;20762;-68
2022/05/08 07:05:43;;;;;;;11.77;2.47;;;;;;;;;;5064984;28;20375;-69
2022/05/08 07:08:09;;;;;;;12.98;2.83;;;;;;;;;;5066237;28;20670;-68
2022/05/08 07:10:34;;;;;;;10.93;2.25;;;;;;;;;;4363305;28;10000898;-68
2022/05/08 07:12:59;;;;;;;9.13;1.95;;;;;;;;;;5063311;28;20632;-68
2022/05/08 07:15:25;;;;;;;12.85;2.10;;;;;;;;;;5061077;28;20192;-66
2022/05/08 07:17:50;;;;;;;8.38;1.90;;;;;;;;;;5060354;28;20196;-65
2022/05/08 07:20:15;;;;;;;11.07;1.83;;;;;;;;;;5058616;28;20173;-67
2022/05/08 07:22:41;;;;;;;10.50;2.00;;;;;;;;;;5063243;28;20601;-66
2022/05/08 07:25:07;;;;;;;7.38;1.88;;;;;;;;;;5064187;28;20193;-68
2022/05/08 07:27:36;;;;;;;13.80;2.03;;;;;;;;;;5059177;28;20449;-66
2022/05/08 07:30:05;;;;;;;15.48;2.38;;;;;;;;;;5061599;28;20201;-66
2022/05/08 07:32:30;;;;;;;10.07;1.88;;;;;;;;;;5053978;28;20968;-68
2022/05/08 07:37:41;;;;;;;8.00;1.63;;;;;;;;;;5059708;28;20512;-66
2022/05/08 07:40:07;;;;;;;7.78;1.92;;;;;;;;;;5063502;28;20292;-67
2022/05/08 07:42:32;;;;;;;8.63;1.67;;;;;;;;;;5063183;28;20291;-66
2022/05/08 07:44:57;;;;;;;12.90;1.98;;;;;;;;;;5060351;28;20184;-66
2022/05/08 07:47:23;;;;;;;10.40;2.00;;;;;;;;;;5058197;28;20173;-66
2022/05/08 07:49:48;;;;;;;8.27;1.67;;;;;;;;;;5061526;28;20196;-66
2022/05/08 07:52:13;;;;;;;11.40;1.92;;;;;;;;;;5058165;28;20177;-68
2022/05/08 07:54:39;;;;;;;6.05;1.48;;;;;;;;;;5060702;28;20180;-72
2022/05/08 07:57:04;;;;;;;11.95;1.90;;;;;;;;;;5065622;28;20181;-67
2022/05/08 07:59:29;;;;;;;14.05;2.10;;;;;;;;;;5066167;28;20177;-67
2022/05/08 08:01:55;;;;;;;12.73;2.47;;;;;;;;;;5063870;28;20811;-68
2022/05/08 08:04:20;;;;;;;10.07;2.00;;;;;;;;;;5063359;28;20207;-67
2022/05/08 08:06:46;;;;;;;10.63;1.67;;;;;;;;;;5065021;28;20184;-68
2022/05/08 08:09:11;;;;;;;9.35;1.58;;;;;;;;;;5064981;28;20232;-66
2022/05/08 08:11:38;;;;;;;11.88;1.75;;;;;;;;;;5065230;28;20191;-67
2022/05/08 08:14:04;;;;;;;6.63;1.70;;;;;;;;;;5064016;28;20191;-67
2022/05/08 08:16:30;;;;;;;9.85;2.10;;;;;;;;;;5067003;28;20250;-66
2022/05/08 08:18:56;;;;;;;7.78;1.70;;;;;;;;;;5083477;28;20192;-68
2022/05/08 08:21:23;;;;;;;8.13;1.85;;;;;;;;;;5067528;28;20184;-68
2022/05/08 08:23:49;;;;;;;6.72;1.58;;;;;;;;;;5066050;28;20193;-67
2022/05/08 08:26:14;;;;;;;7.28;1.48;;;;;;;;;;5067635;28;20187;-67
2022/05/08 08:28:40;;;;;;;7.88;1.38;;;;;;;;;;5066271;28;20596;-67
2022/05/08 08:31:10;;;;;;;6.50;2.20;;;;;;;;;;5066730;28;20738;-68
2022/05/08 08:33:40;;;;;;;12.98;2.17;;;;;;;;;;5063273;28;20700;-69
2022/05/08 08:36:09;;;;;;;6.72;1.77;;;;;;;;;;5063951;28;20184;-68
2022/05/08 08:38:35;;;;;;;8.10;1.85;;;;;;;;;;5063677;28;20192;-67
2022/05/08 08:41:04;;;;;;;10.07;1.65;;;;;;;;;;5065726;28;20181;-67
2022/05/08 08:47:42;;;;;;;12.27;1.75;;;;;;;;;;5061318;28;20689;-69
2022/05/08 08:49:02;;;;;;;7.35;1.25;;;;;;;;;;5064614;28;20258;-67
2022/05/08 08:51:27;;;;;;;7.90;1.92;;;;;;;;;;5065378;28;20280;-68
2022/05/08 08:53:54;;;;;;;6.40;1.83;;;;;;;;;;5059207;28;20259;-69
2022/05/08 08:56:19;;;;;;;8.27;1.20;;;;;;;;;;5067053;28;20524;-66
2022/05/08 08:58:45;;;;;;;8.50;1.50;;;;;;;;;;5065751;28;20208;-68
2022/05/08 09:01:14;;;;;;;5.43;1.65;;;;;;;;;;5072652;28;20636;-67
2022/05/08 09:03:39;;;;;;;4.10;1.40;;;;;;;;;;5062803;28;20189;-69
2022/05/08 09:06:08;;;;;;;6.93;1.40;;;;;;;;;;5064564;28;20188;-68
2022/05/08 09:08:35;;;;;;;13.02;1.80;;;;;;;;;;5065650;28;20649;-67
2022/05/08 09:11:01;;;;;;;8.00;1.80;;;;;;;;;;5065236;28;20184;-67
2022/05/08 09:13:30;;;;;;;7.20;2.17;;;;;;;;;;5062870;28;20207;-67
2022/05/08 09:16:07;;;;;;;7.40;1.58;;;;;;;;;;5060750;28;20189;-71
2022/05/08 09:18:44;;;;;;;7.05;1.80;;;;;;;;;;5061554;28;20188;-68
2022/05/08 09:24:09;;;;;;;7.30;1.73;;;;;;;;;;5061867;28;20200;-70
2022/05/08 09:26:36;;;;;;;8.45;1.95;;;;;;;;;;5066315;28;20659;-68
2022/05/08 09:29:03;;;;;;;5.47;1.83;;;;;;;;;;5061544;28;20652;-68
2022/05/08 09:31:38;;;;;;;7.13;1.83;;;;;;;;;;5062699;28;20599;-68
2022/05/08 09:34:04;;;;;;;6.70;1.75;;;;;;;;;;5062906;28;20173;-68
2022/05/08 09:36:29;;;;;;;6.97;1.52;;;;;;;;;;5064410;28;20214;-67
2022/05/08 09:38:56;;;;;;;9.75;1.58;;;;;;;;;;5062135;28;20245;-68
2022/05/08 09:41:24;;;;;;;10.15;1.85;;;;;;;;;;5062738;28;20550;-69
2022/05/08 09:43:51;;;;;;;12.98;1.60;;;;;;;;;;5062470;28;20199;-68
2022/05/08 09:46:17;;;;;;;6.25;1.50;;;;;;;;;;5056014;28;20642;-68
2022/05/08 09:48:43;;;;;;;8.27;1.35;;;;;;;;;;5058732;28;20193;-68
2022/05/08 09:51:11;;;;;;;7.82;1.58;;;;;;;;;;5082832;28;20204;-73
2022/05/08 09:53:40;;;;;;;6.82;1.50;;;;;;;;;;5073398;28;20181;-70
2022/05/08 09:56:08;;;;;;;10.18;1.52;;;;;;;;;;5068489;28;20713;-66
2022/05/08 09:58:34;;;;;;;8.27;2.08;;;;;;;;;;5057410;28;20189;-67
2022/05/08 10:01:00;;;;;;;5.68;2.13;;;;;;;;;;5070444;28;20515;-69
2022/05/08 10:03:27;;;;;;;7.38;1.73;;;;;;;;;;5068524;28;20679;-71
2022/05/08 10:05:53;;;;;;;6.82;2.10;;;;;;;;;;5084222;28;20181;-66
2022/05/08 10:08:22;;;;;;;6.40;1.80;;;;;;;;;;5070891;28;20255;-67
2022/05/08 10:13:53;;;;;;;7.22;1.60;;;;;;;;;;5059279;28;20550;-67
2022/05/08 10:16:48;;;;;;;7.45;1.67;;;;;;;;;;5070668;28;20172;-68
2022/05/08 10:19:19;;;;;;;6.25;1.50;;;;;;;;;;5056440;28;20221;-68
2022/05/08 10:22:00;;;;;;;5.85;1.55;;;;;;;;;;5070502;28;20189;-73
2022/05/08 10:24:35;;;;;;;8.93;1.65;;;;;;;;;;5057710;28;20199;-68
2022/05/08 10:27:25;;;;;;;6.30;1.40;;;;;;;;;;5068854;28;20185;-69
2022/05/08 10:29:52;;;;;;;6.60;1.38;;;;;;;;;;5056352;28;20204;-67
2022/05/08 10:32:42;;;;;;;4.10;1.20;;;;;;;;;;5069822;28;20197;-67
2022/05/08 10:35:12;;;;;;;8.85;1.67;;;;;;;;;;5070566;28;20188;-69
2022/05/08 10:37:38;;;;;;;9.00;1.48;;;;;;;;;;5066116;28;20189;-68
2022/05/08 10:40:25;;;;;;;9.82;1.58;;;;;;;;;;5069304;28;20181;-68
2022/05/08 10:42:55;;;;;;;6.68;1.30;;;;;;;;;;5068632;28;20239;-67
2022/05/08 10:45:33;;;;;;;4.55;1.52;;;;;;;;;;5070274;28;20199;-67
2022/05/08 10:48:13;;;;;;;8.98;1.60;;;;;;;;;;5067853;28;20192;-66
2022/05/08 10:50:50;;;;;;;5.55;1.38;;;;;;;;;;5069807;28;20258;-66
2022/05/08 10:53:32;;;;;;;5.95;1.25;;;;;;;;;;5060976;28;20629;-67
2022/05/08 10:56:06;;;;;;;5.57;1.50;;;;;;;;;;5066920;28;20792;-70
2022/05/08 10:58:33;;;;;;;6.60;1.38;;;;;;;;;;5062668;28;20196;-67
2022/05/08 11:01:02;;;;;;;9.07;1.83;;;;;;;;;;5069180;28;20756;-67
2022/05/08 11:03:28;;;;;;;6.07;1.40;;;;;;;;;;5064098;28;20203;-67
2022/05/08 11:05:54;;;;;;;5.10;1.27;;;;;;;;;;5064938;28;20239;-66
2022/05/08 11:08:31;;;;;;;8.50;1.23;;;;;;;;;;5059174;28;20237;-67
2022/05/08 11:11:09;;;;;;;6.07;2.00;;;;;;;;;;5066226;28;20549;-68
2022/05/08 11:13:44;;;;;;;4.80;1.60;;;;;;;;;;5055006;28;20193;-67
2022/05/08 11:16:11;;;;;;;5.97;1.65;;;;;;;;;;5068304;28;20176;-67
2022/05/08 11:18:37;;;;;;;5.85;1.75;;;;;;;;;;5068687;28;20240;-68
2022/05/08 11:21:04;;;;;;;5.80;1.80;;;;;;;;;;5056671;28;20272;-67
2022/05/08 11:23:32;;;;;;;10.57;1.90;;;;;;;;;;5064742;28;20266;-67
2022/05/08 11:26:11;;;;;;;6.75;1.40;;;;;;;;;;5052292;28;20181;-68
2022/05/08 11:28:49;;;;;;;5.90;1.55;;;;;;;;;;5063700;28;20192;-68
2022/05/08 11:31:17;;;;;;;10.30;1.70;;;;;;;;;;5065792;28;20286;-69
2022/05/08 11:36:30;;;;;;;5.57;1.35;;;;;;;;;;5069677;28;20327;-68
2022/05/08 11:38:58;;;;;;;3.42;1.20;;;;;;;;;;5065329;28;20196;-67
2022/05/08 11:41:27;;;;;;;6.63;1.73;;;;;;;;;;5054532;28;20180;-66
2022/05/08 11:43:57;;;;;;;7.15;1.90;;;;;;;;;;5066805;28;20214;-67
2022/05/08 11:46:39;;;;;;;5.35;1.60;;;;;;;;;;5065766;28;20652;-67
2022/05/08 11:49:24;;;;;;;8.15;1.40;;;;;;;;;;5063587;28;20228;-68
2022/05/08 11:51:51;;;;;;;4.35;1.30;;;;;;;;;;5065211;28;20267;-67
2022/05/08 11:54:24;;;;;;;6.88;1.50;;;;;;;;;;5060736;28;20485;-69
2022/05/08 11:56:54;;;;;;;5.13;1.48;;;;;;;;;;5066825;28;20204;-68
2022/05/08 11:59:22;;;;;;;5.90;1.50;;;;;;;;;;5066628;28;20273;-68
2022/05/08 12:01:53;;;;;;;13.50;2.30;;;;;;;;;;5067299;28;20200;-72
2022/05/08 12:04:26;;;;;;;4.22;1.35;;;;;;;;;;5066035;28;20177;-68
2022/05/08 12:07:05;;;;;;;5.95;1.45;;;;;;;;;;5066425;28;20188;-67
2022/05/08 12:09:51;;;;;;;3.47;1.23;;;;;;;;;;5063927;28;20260;-66
2022/05/08 12:12:33;;;;;;;5.75;1.10;;;;;;;;;;5065834;28;20237;-67
2022/05/08 12:15:01;;;;;;;4.63;1.50;;;;;;;;;;5064562;28;20207;-68
2022/05/08 12:17:27;;;;;;;6.63;1.30;;;;;;;;;;5063007;28;20252;-66
2022/05/08 12:19:54;;;;;;;6.75;1.75;;;;;;;;;;5063213;28;20204;-67
2022/05/08 12:22:21;;;;;;;11.10;1.73;;;;;;;;;;5067937;28;20587;-68
2022/05/08 12:24:47;;;;;;;6.90;1.23;;;;;;;;;;5060853;28;20532;-68
2022/05/08 12:27:12;;;;;;;6.53;1.63;;;;;;;;;;5065597;28;20176;-70
2022/05/08 12:29:41;;;;;;;6.95;1.17;;;;;;;;;;5064817;28;20776;-67
2022/05/08 12:32:06;;;;;;;8.30;1.40;;;;;;;;;;5064832;28;20200;-66
2022/05/08 12:34:32;;;;;;;10.75;1.35;;;;;;;;;;5063306;28;20204;-68
2022/05/08 12:36:57;;;;;;;7.50;1.63;;;;;;;;;;5064360;28;20964;-69
2022/05/08 12:39:22;;;;;;;8.07;1.63;;;;;;;;;;5064402;28;20205;-68
2022/05/08 12:41:48;;;;;;;5.80;1.30;;;;;;;;;;5061768;28;20223;-68
2022/05/08 12:44:29;;;;;;;5.90;1.30;;;;;;;;;;4900358;28;10000704;-68
2022/05/08 12:46:54;;;;;;;11.65;2.03;;;;;;;;;;5061085;28;20427;-79
2022/05/08 12:49:19;;;;;;;4.47;1.33;;;;;;;;;;5061778;28;20197;-67
2022/05/08 12:51:46;;;;;;;9.00;1.95;;;;;;;;;;5059786;28;20188;-67
2022/05/08 12:54:11;;;;;;;7.18;2.00;;;;;;;;;;5059938;28;20231;-69
2022/05/08 12:56:37;;;;;;;8.45;1.27;;;;;;;;;;5060711;28;20419;-68
2022/05/08 13:01:47;;;;;;;8.30;1.67;;;;;;;;;;5061623;28;20200;-69
2022/05/08 13:04:12;;;;;;;6.32;1.80;;;;;;;;;;5056383;28;20552;-69
2022/05/08 13:06:38;;;;;;;4.72;1.40;;;;;;;;;;5060220;28;20195;-67
2022/05/08 13:09:08;;;;;;;8.52;1.70;;;;;;;;;;5059164;28;20229;-68
2022/05/08 13:11:35;;;;;;;6.35;1.65;;;;;;;;;;5061859;28;20189;-70
2022/05/08 13:14:01;;;;;;;4.40;1.80;;;;;;;;;;5060684;28;20192;-68
2022/05/08 13:16:27;;;;;;;6.05;1.20;;;;;;;;;;5063374;28;20212;-69
2022/05/08 13:18:52;;;;;;;4.35;1.30;;;;;;;;;;5064543;28;20216;-69
2022/05/08 13:21:18;;;;;;;5.20;1.33;;;;;;;;;;5065141;28;20221;-68
2022/05/08 13:23:44;;;;;;;8.57;1.48;;;;;;;;;;5068296;28;20230;-69
2022/05/08 13:26:10;;;;;;;5.22;1.60;;;;;;;;;;5067939;28;20188;-77
2022/05/08 13:28:35;;;;;;;8.20;1.50;;;;;;;;;;5068776;28;20177;-69
2022/05/08 13:31:03;;;;;;;9.32;1.58;;;;;;;;;;5066624;28;20211;-68
2022/05/08 13:33:28;;;;;;;7.13;1.35;;;;;;;;;;5068541;28;20214;-68
2022/05/08 13:35:54;;;;;;;7.75;1.70;;;;;;;;;;5067771;28;20189;-68
2022/05/08 13:38:20;;;;;;;6.20;1.63;;;;;;;;;;5069786;28;20185;-66
2022/05/08 13:40:49;;;;;;;10.93;1.85;;;;;;;;;;5064345;28;20564;-68
2022/05/08 13:43:15;;;;;;;9.20;1.73;;;;;;;;;;5066440;28;20237;-68
2022/05/08 13:45:41;;;;;;;6.88;1.55;;;;;;;;;;5068992;28;20232;-67
2022/05/08 13:48:07;;;;;;;7.03;1.10;;;;;;;;;;5069285;28;20187;-69
2022/05/08 13:50:32;;;;;;;5.57;1.40;;;;;;;;;;5069218;28;20204;-68
2022/05/08 13:52:58;;;;;;;4.65;1.23;;;;;;;;;;5068969;28;20725;-73
2022/05/08 13:55:24;;;;;;;4.95;1.33;;;;;;;;;;5065959;28;20330;-67
2022/05/08 13:57:53;;;;;;;4.10;1.20;;;;;;;;;;5062786;28;20272;-68
2022/05/08 14:00:19;;;;;;;9.27;1.50;;;;;;;;;;5063188;28;20203;-70
2022/05/08 14:02:45;;;;;;;5.38;1.30;;;;;;;;;;5064893;28;20181;-70
2022/05/08 14:05:10;;;;;;;7.25;1.63;;;;;;;;;;5058578;28;20179;-68
2022/05/08 14:07:36;;;;;;;5.30;1.50;;;;;;;;;;5081927;28;20192;-68
2022/05/08 14:10:04;;;;;;;4.32;1.23;;;;;;;;;;5065834;28;20711;-70
2022/05/08 14:12:30;;;;;;;4.72;1.50;;;;;;;;;;5079701;28;20180;-69
2022/05/08 14:14:55;;;;;;;6.05;1.40;;;;;;;;;;5080291;28;20256;-69
2022/05/08 14:17:20;;;;;;;3.72;1.20;;;;;;;;;;5065399;28;20177;-70
2022/05/08 14:19:46;;;;;;;5.78;1.55;;;;;;;;;;5076602;28;20222;-69
2022/05/08 14:22:11;;;;;;;3.47;1.25;;;;;;;;;;5064852;28;20176;-69
2022/05/08 14:24:36;;;;;;;6.82;1.90;;;;;;;;;;5061737;28;20681;-69
2022/05/08 14:27:02;;;;;;;2.17;1.48;;;;;;;;;;5064302;28;20184;-68
2022/05/08 14:29:27;;;;;;;6.57;1.35;;;;;;;;;;5063332;28;20201;-69
2022/05/08 14:37:21;;;;;;;8.10;1.30;;;;;;;;;;5064615;28;20196;-68
2022/05/08 14:39:46;;;;;;;5.68;1.10;;;;;;;;;;5064363;28;20172;-68
2022/05/08 14:42:11;;;;;;;5.07;1.40;;;;;;;;;;5062611;28;20187;-69
2022/05/08 14:44:37;;;;;;;5.57;1.60;;;;;;;;;;5063630;28;20782;-68
2022/05/08 14:47:02;;;;;;;6.28;1.30;;;;;;;;;;5064957;28;20177;-69
2022/05/08 14:49:27;;;;;;;5.15;1.67;;;;;;;;;;5065076;28;20205;-68
2022/05/08 14:51:53;;;;;;;4.90;1.73;;;;;;;;;;5064511;28;20266;-67
2022/05/08 14:54:19;;;;;;;7.32;1.52;;;;;;;;;;5063431;28;20534;-68
2022/05/08 14:56:44;;;;;;;7.53;1.38;;;;;;;;;;5061197;28;20195;-69
2022/05/08 14:59:10;;;;;;;8.50;1.45;;;;;;;;;;5065122;28;20173;-71
2022/05/08 15:01:35;;;;;;;6.55;1.50;;;;;;;;;;5079866;28;20176;-67
2022/05/08 15:04:00;;;;;;;3.97;1.40;;;;;;;;;;5062400;28;20203;-67
2022/05/08 15:06:26;;;;;;;5.45;1.30;;;;;;;;;;5063779;28;20609;-67
2022/05/08 15:08:51;;;;;;;8.82;1.63;;;;;;;;;;5063615;28;20221;-67
2022/05/08 15:11:18;;;;;;;10.18;1.60;;;;;;;;;;5063946;28;20208;-68